sensor_id;sensor_type;location;lat;lon;timestamp;pressure;altitude;pressure_sealevel;temperature;humidity
79465;BME280;68932;47.410;8.232;2023-07-31T00:02:16;97021.96;;;17.01;66.17
79465;BME280;68932;47.410;8.232;2023-07-31T00:04:45;97022.86;;;16.99;66.33
79465;BME280;68932;47.410;8.232;2023-07-31T00:07:13;97020.23;;;16.99;66.37
79465;BME280;68932;47.410;8.232;2023-07-31T00:09:42;97014.89;;;16.97;66.43
79465;BME280;68932;47.410;8.232;2023-07-31T00:12:10;97007.40;;;16.98;66.19
79465;BME280;68932;47.410;8.232;2023-07-31T00:14:39;97006.59;;;16.97;65.97
79465;BME280;68932;47.410;8.232;2023-07-31T00:17:08;97012.66;;;16.99;65.85
79465;BME280;68932;47.410;8.232;2023-07-31T00:19:36;97014.70;;;17.00;65.77
79465;BME280;68932;47.410;8.232;2023-07-31T00:22:05;97013.58;;;17.00;65.84
79465;BME280;68932;47.410;8.232;2023-07-31T00:24:33;97019.59;;;17.00;65.87
79465;BME280;68932;47.410;8.232;2023-07-31T00:27:02;97014.55;;;16.99;65.81
79465;BME280;68932;47.410;8.232;2023-07-31T00:29:30;97012.77;;;17.00;65.71
79465;BME280;68932;47.410;8.232;2023-07-31T00:31:58;97009.15;;;16.98;65.79
79465;BME280;68932;47.410;8.232;2023-07-31T00:34:27;97004.08;;;16.98;65.76
79465;BME280;68932;47.410;8.232;2023-07-31T00:36:55;97004.48;;;16.97;65.83
79465;BME280;68932;47.410;8.232;2023-07-31T00:39:24;97000.36;;;16.96;65.79
79465;BME280;68932;47.410;8.232;2023-07-31T00:41:52;96998.85;;;16.95;65.72
79465;BME280;68932;47.410;8.232;2023-07-31T00:44:20;96994.73;;;16.95;65.66
79465;BME280;68932;47.410;8.232;2023-07-31T00:46:49;96991.80;;;16.94;65.79
79465;BME280;68932;47.410;8.232;2023-07-31T00:49:17;96995.16;;;16.94;65.69
79465;BME280;68932;47.410;8.232;2023-07-31T00:51:46;97000.70;;;16.94;65.73
79465;BME280;68932;47.410;8.232;2023-07-31T00:54:14;96997.42;;;16.93;65.81
79465;BME280;68932;47.410;8.232;2023-07-31T00:56:44;96995.86;;;16.93;65.91
79465;BME280;68932;47.410;8.232;2023-07-31T00:59:13;96995.27;;;16.91;65.97
79465;BME280;68932;47.410;8.232;2023-07-31T01:01:41;96993.48;;;16.90;66.09
79465;BME280;68932;47.410;8.232;2023-07-31T01:04:10;96996.98;;;16.88;66.03
79465;BME280;68932;47.410;8.232;2023-07-31T01:06:44;96992.84;;;16.87;66.27
79465;BME280;68932;47.410;8.232;2023-07-31T01:09:23;96990.78;;;16.84;66.16
79465;BME280;68932;47.410;8.232;2023-07-31T01:12:00;96985.75;;;16.81;65.99
79465;BME280;68932;47.410;8.232;2023-07-31T01:14:29;96986.15;;;16.81;65.93
79465;BME280;68932;47.410;8.232;2023-07-31T01:16:57;96985.40;;;16.79;66.14
79465;BME280;68932;47.410;8.232;2023-07-31T01:19:26;96979.00;;;16.77;66.14
79465;BME280;68932;47.410;8.232;2023-07-31T01:22:28;96975.58;;;16.75;66.29
79465;BME280;68932;47.410;8.232;2023-07-31T01:25:05;96974.41;;;16.73;66.29
79465;BME280;68932;47.410;8.232;2023-07-31T01:27:44;96972.16;;;16.70;66.36
79465;BME280;68932;47.410;8.232;2023-07-31T01:30:18;96979.20;;;16.67;66.33
79465;BME280;68932;47.410;8.232;2023-07-31T01:32:51;96971.40;;;16.65;66.35
79465;BME280;68932;47.410;8.232;2023-07-31T01:35:21;96968.82;;;16.64;66.27
79465;BME280;68932;47.410;8.232;2023-07-31T01:37:49;96969.22;;;16.64;66.33
79465;BME280;68932;47.410;8.232;2023-07-31T01:40:20;96966.04;;;16.62;66.37
79465;BME280;68932;47.410;8.232;2023-07-31T01:42:48;96964.33;;;16.61;66.35
79465;BME280;68932;47.410;8.232;2023-07-31T01:45:16;96962.73;;;16.59;66.40
79465;BME280;68932;47.410;8.232;2023-07-31T01:47:45;96955.85;;;16.57;66.37
79465;BME280;68932;47.410;8.232;2023-07-31T01:50:13;96952.85;;;16.57;66.28
79465;BME280;68932;47.410;8.232;2023-07-31T01:52:41;96951.89;;;16.56;66.43
79465;BME280;68932;47.410;8.232;2023-07-31T01:55:10;96948.81;;;16.55;66.57
79465;BME280;68932;47.410;8.232;2023-07-31T01:57:38;96945.29;;;16.53;66.49
79465;BME280;68932;47.410;8.232;2023-07-31T02:00:09;96948.14;;;16.49;66.68
79465;BME280;68932;47.410;8.232;2023-07-31T02:02:37;96946.09;;;16.46;66.63
79465;BME280;68932;47.410;8.232;2023-07-31T02:05:07;96943.11;;;16.44;66.70
79465;BME280;68932;47.410;8.232;2023-07-31T02:07:35;96942.55;;;16.42;66.77
79465;BME280;68932;47.410;8.232;2023-07-31T02:10:05;96940.25;;;16.40;66.68
79465;BME280;68932;47.410;8.232;2023-07-31T02:12:33;96942.27;;;16.37;66.77
79465;BME280;68932;47.410;8.232;2023-07-31T02:15:01;96938.85;;;16.33;66.69
79465;BME280;68932;47.410;8.232;2023-07-31T02:17:29;96934.40;;;16.30;66.73
79465;BME280;68932;47.410;8.232;2023-07-31T02:19:58;96923.59;;;16.28;66.82
79465;BME280;68932;47.410;8.232;2023-07-31T02:22:26;96926.33;;;16.25;66.85
79465;BME280;68932;47.410;8.232;2023-07-31T02:24:54;96926.73;;;16.23;66.71
79465;BME280;68932;47.410;8.232;2023-07-31T02:27:22;96922.25;;;16.20;66.85
79465;BME280;68932;47.410;8.232;2023-07-31T02:29:51;96927.35;;;16.18;66.90
79465;BME280;68932;47.410;8.232;2023-07-31T02:32:19;96926.67;;;16.18;66.98
79465;BME280;68932;47.410;8.232;2023-07-31T02:34:47;96925.59;;;16.16;67.02
79465;BME280;68932;47.410;8.232;2023-07-31T02:37:15;96932.45;;;16.14;67.09
79465;BME280;68932;47.410;8.232;2023-07-31T02:39:44;96929.05;;;16.13;67.14
79465;BME280;68932;47.410;8.232;2023-07-31T02:42:12;96926.05;;;16.11;67.08
79465;BME280;68932;47.410;8.232;2023-07-31T02:44:40;96923.94;;;16.09;67.26
79465;BME280;68932;47.410;8.232;2023-07-31T02:47:09;96921.21;;;16.06;67.23
79465;BME280;68932;47.410;8.232;2023-07-31T02:49:37;96920.90;;;16.03;67.23
79465;BME280;68932;47.410;8.232;2023-07-31T02:52:19;96916.89;;;16.01;67.27
79465;BME280;68932;47.410;8.232;2023-07-31T02:54:47;96916.86;;;15.99;67.31
79465;BME280;68932;47.410;8.232;2023-07-31T02:57:15;96911.95;;;15.98;67.39
79465;BME280;68932;47.410;8.232;2023-07-31T02:59:43;96914.67;;;15.97;67.53
79465;BME280;68932;47.410;8.232;2023-07-31T03:02:12;96913.59;;;15.95;67.62
79465;BME280;68932;47.410;8.232;2023-07-31T03:04:40;96920.77;;;15.94;67.63
79465;BME280;68932;47.410;8.232;2023-07-31T03:07:08;96925.23;;;15.92;67.68
79465;BME280;68932;47.410;8.232;2023-07-31T03:09:36;96927.95;;;15.89;67.74
79465;BME280;68932;47.410;8.232;2023-07-31T03:12:06;96921.81;;;15.87;67.71
79465;BME280;68932;47.410;8.232;2023-07-31T03:14:35;96920.96;;;15.84;67.82
79465;BME280;68932;47.410;8.232;2023-07-31T03:17:03;96920.95;;;15.82;67.83
79465;BME280;68932;47.410;8.232;2023-07-31T03:19:33;96921.08;;;15.79;67.93
79465;BME280;68932;47.410;8.232;2023-07-31T03:22:01;96924.31;;;15.74;68.01
79465;BME280;68932;47.410;8.232;2023-07-31T03:24:31;96917.61;;;15.72;68.25
79465;BME280;68932;47.410;8.232;2023-07-31T03:26:59;96921.45;;;15.70;68.36
79465;BME280;68932;47.410;8.232;2023-07-31T03:29:27;96921.71;;;15.69;68.50
79465;BME280;68932;47.410;8.232;2023-07-31T03:31:55;96925.59;;;15.69;68.55
79465;BME280;68932;47.410;8.232;2023-07-31T03:34:24;96929.33;;;15.69;68.63
79465;BME280;68932;47.410;8.232;2023-07-31T03:36:52;96933.16;;;15.70;68.70
79465;BME280;68932;47.410;8.232;2023-07-31T03:39:20;96934.56;;;15.70;68.75
79465;BME280;68932;47.410;8.232;2023-07-31T03:41:48;96939.85;;;15.70;68.93
79465;BME280;68932;47.410;8.232;2023-07-31T03:44:17;96945.77;;;15.69;69.06
79465;BME280;68932;47.410;8.232;2023-07-31T03:46:45;96944.34;;;15.67;69.16
79465;BME280;68932;47.410;8.232;2023-07-31T03:49:13;96946.80;;;15.66;69.23
79465;BME280;68932;47.410;8.232;2023-07-31T03:51:42;96946.15;;;15.65;69.30
79465;BME280;68932;47.410;8.232;2023-07-31T03:54:10;96946.93;;;15.64;69.31
79465;BME280;68932;47.410;8.232;2023-07-31T03:56:38;96956.20;;;15.63;69.37
79465;BME280;68932;47.410;8.232;2023-07-31T03:59:06;96954.80;;;15.63;69.49
79465;BME280;68932;47.410;8.232;2023-07-31T04:01:35;96953.00;;;15.63;69.59
79465;BME280;68932;47.410;8.232;2023-07-31T04:04:03;96952.80;;;15.64;69.55
79465;BME280;68932;47.410;8.232;2023-07-31T04:06:32;96951.16;;;15.62;69.55
79465;BME280;68932;47.410;8.232;2023-07-31T04:09:00;96952.59;;;15.60;69.63
79465;BME280;68932;47.410;8.232;2023-07-31T04:11:28;96954.73;;;15.57;69.80
79465;BME280;68932;47.410;8.232;2023-07-31T04:13:56;96955.34;;;15.50;70.01
79465;BME280;68932;47.410;8.232;2023-07-31T04:16:25;96952.86;;;15.46;70.21
79465;BME280;68932;47.410;8.232;2023-07-31T04:18:53;96956.88;;;15.43;70.53
79465;BME280;68932;47.410;8.232;2023-07-31T04:21:21;96959.30;;;15.35;70.71
79465;BME280;68932;47.410;8.232;2023-07-31T04:23:50;96957.92;;;15.32;70.80
79465;BME280;68932;47.410;8.232;2023-07-31T04:26:18;96957.25;;;15.32;70.79
79465;BME280;68932;47.410;8.232;2023-07-31T04:28:46;96960.52;;;15.33;70.87
79465;BME280;68932;47.410;8.232;2023-07-31T04:31:14;96960.49;;;15.33;70.95
79465;BME280;68932;47.410;8.232;2023-07-31T04:33:43;96963.77;;;15.36;70.94
79465;BME280;68932;47.410;8.232;2023-07-31T04:36:11;96964.44;;;15.41;70.90
79465;BME280;68932;47.410;8.232;2023-07-31T04:38:39;96957.23;;;15.45;70.94
79465;BME280;68932;47.410;8.232;2023-07-31T04:41:07;96956.58;;;15.48;70.82
79465;BME280;68932;47.410;8.232;2023-07-31T04:43:35;96955.48;;;15.50;70.57
79465;BME280;68932;47.410;8.232;2023-07-31T04:46:04;96960.41;;;15.53;70.59
79465;BME280;68932;47.410;8.232;2023-07-31T04:48:32;96960.70;;;15.55;70.59
79465;BME280;68932;47.410;8.232;2023-07-31T04:51:00;96961.85;;;15.59;70.65
79465;BME280;68932;47.410;8.232;2023-07-31T04:53:28;96955.98;;;15.62;70.61
79465;BME280;68932;47.410;8.232;2023-07-31T04:55:57;96951.21;;;15.63;70.64
79465;BME280;68932;47.410;8.232;2023-07-31T04:58:25;96950.50;;;15.65;70.51
79465;BME280;68932;47.410;8.232;2023-07-31T05:00:53;96949.25;;;15.68;70.44
79465;BME280;68932;47.410;8.232;2023-07-31T05:03:22;96954.11;;;15.70;70.53
79465;BME280;68932;47.410;8.232;2023-07-31T05:05:51;96954.23;;;15.73;70.55
79465;BME280;68932;47.410;8.232;2023-07-31T05:08:19;96951.59;;;15.77;70.53
79465;BME280;68932;47.410;8.232;2023-07-31T05:10:47;96946.23;;;15.82;70.59
79465;BME280;68932;47.410;8.232;2023-07-31T05:13:15;96948.20;;;15.84;70.15
79465;BME280;68932;47.410;8.232;2023-07-31T05:15:44;96952.36;;;15.87;70.03
79465;BME280;68932;47.410;8.232;2023-07-31T05:18:13;96953.94;;;15.89;69.89
79465;BME280;68932;47.410;8.232;2023-07-31T05:20:41;96954.71;;;15.88;69.74
79465;BME280;68932;47.410;8.232;2023-07-31T05:23:10;96954.43;;;15.87;69.59
79465;BME280;68932;47.410;8.232;2023-07-31T05:25:38;96961.95;;;15.84;69.66
79465;BME280;68932;47.410;8.232;2023-07-31T05:28:06;96965.73;;;15.82;69.69
79465;BME280;68932;47.410;8.232;2023-07-31T05:30:35;96965.66;;;15.81;69.85
79465;BME280;68932;47.410;8.232;2023-07-31T05:33:03;96973.38;;;15.81;69.82
79465;BME280;68932;47.410;8.232;2023-07-31T05:35:31;96981.46;;;15.82;69.81
79465;BME280;68932;47.410;8.232;2023-07-31T05:38:00;96981.63;;;15.82;69.80
79465;BME280;68932;47.410;8.232;2023-07-31T05:40:28;96980.79;;;15.83;69.76
79465;BME280;68932;47.410;8.232;2023-07-31T05:42:56;96980.23;;;15.83;69.71
79465;BME280;68932;47.410;8.232;2023-07-31T05:45:25;96981.67;;;15.83;69.78
79465;BME280;68932;47.410;8.232;2023-07-31T05:47:53;96976.98;;;15.82;69.72
79465;BME280;68932;47.410;8.232;2023-07-31T05:50:21;96977.07;;;15.81;69.74
79465;BME280;68932;47.410;8.232;2023-07-31T05:52:50;96977.92;;;15.82;69.77
79465;BME280;68932;47.410;8.232;2023-07-31T05:55:18;96977.84;;;15.80;69.78
79465;BME280;68932;47.410;8.232;2023-07-31T05:57:46;96981.78;;;15.78;69.78
79465;BME280;68932;47.410;8.232;2023-07-31T06:00:16;96967.83;;;15.78;69.95
79465;BME280;68932;47.410;8.232;2023-07-31T06:02:44;96969.03;;;15.78;70.03
79465;BME280;68932;47.410;8.232;2023-07-31T06:05:12;96976.19;;;15.79;69.90
79465;BME280;68932;47.410;8.232;2023-07-31T06:07:41;96981.92;;;15.80;70.00
79465;BME280;68932;47.410;8.232;2023-07-31T06:10:10;96980.40;;;15.82;70.22
79465;BME280;68932;47.410;8.232;2023-07-31T06:12:38;96965.99;;;15.84;70.13
79465;BME280;68932;47.410;8.232;2023-07-31T06:15:08;96956.30;;;15.88;70.17
79465;BME280;68932;47.410;8.232;2023-07-31T06:17:36;96952.21;;;15.92;70.19
79465;BME280;68932;47.410;8.232;2023-07-31T06:20:06;96955.50;;;15.97;70.40
79465;BME280;68932;47.410;8.232;2023-07-31T06:22:34;96966.54;;;16.03;70.25
79465;BME280;68932;47.410;8.232;2023-07-31T06:25:03;96969.77;;;16.08;70.18
79465;BME280;68932;47.410;8.232;2023-07-31T06:27:31;96968.63;;;16.13;70.03
79465;BME280;68932;47.410;8.232;2023-07-31T06:30:00;96962.00;;;16.18;70.04
79465;BME280;68932;47.410;8.232;2023-07-31T06:32:28;96958.88;;;16.23;70.07
79465;BME280;68932;47.410;8.232;2023-07-31T06:34:56;96963.30;;;16.29;70.10
79465;BME280;68932;47.410;8.232;2023-07-31T06:37:24;96955.05;;;16.36;69.98
79465;BME280;68932;47.410;8.232;2023-07-31T06:39:53;96953.56;;;16.45;69.69
79465;BME280;68932;47.410;8.232;2023-07-31T06:42:21;96952.70;;;16.55;69.57
79465;BME280;68932;47.410;8.232;2023-07-31T06:44:49;96951.45;;;16.65;69.32
79465;BME280;68932;47.410;8.232;2023-07-31T06:47:18;96952.77;;;16.73;68.83
79465;BME280;68932;47.410;8.232;2023-07-31T06:49:46;96954.09;;;16.83;68.64
79465;BME280;68932;47.410;8.232;2023-07-31T06:52:14;96949.64;;;16.93;68.31
79465;BME280;68932;47.410;8.232;2023-07-31T06:54:43;96947.75;;;17.03;68.21
79465;BME280;68932;47.410;8.232;2023-07-31T06:57:11;96935.48;;;17.15;67.88
79465;BME280;68932;47.410;8.232;2023-07-31T06:59:39;96930.06;;;17.26;67.41
79465;BME280;68932;47.410;8.232;2023-07-31T07:02:08;96928.93;;;17.33;66.98
79465;BME280;68932;47.410;8.232;2023-07-31T07:04:36;96930.89;;;17.35;66.73
79465;BME280;68932;47.410;8.232;2023-07-31T07:07:05;96931.60;;;17.36;66.67
79465;BME280;68932;47.410;8.232;2023-07-31T07:09:33;96929.90;;;17.40;66.59
79465;BME280;68932;47.410;8.232;2023-07-31T07:12:02;96927.90;;;17.49;66.88
79465;BME280;68932;47.410;8.232;2023-07-31T07:14:30;96922.17;;;17.57;66.66
79465;BME280;68932;47.410;8.232;2023-07-31T07:16:58;96922.27;;;17.62;66.43
79465;BME280;68932;47.410;8.232;2023-07-31T07:19:26;96926.25;;;17.65;66.45
79465;BME280;68932;47.410;8.232;2023-07-31T07:21:55;96931.40;;;17.67;66.43
79465;BME280;68932;47.410;8.232;2023-07-31T07:24:23;96938.96;;;17.69;66.37
79465;BME280;68932;47.410;8.232;2023-07-31T07:26:51;96938.34;;;17.72;66.23
79465;BME280;68932;47.410;8.232;2023-07-31T07:29:19;96930.83;;;17.74;66.45
79465;BME280;68932;47.410;8.232;2023-07-31T07:31:47;96928.61;;;17.81;66.38
79465;BME280;68932;47.410;8.232;2023-07-31T07:34:16;96921.68;;;17.89;66.02
79465;BME280;68932;47.410;8.232;2023-07-31T07:36:44;96929.23;;;17.95;65.86
79465;BME280;68932;47.410;8.232;2023-07-31T07:39:12;96930.86;;;18.04;65.88
79465;BME280;68932;47.410;8.232;2023-07-31T07:41:41;96930.89;;;18.09;65.57
79465;BME280;68932;47.410;8.232;2023-07-31T07:44:09;96936.25;;;18.20;65.31
79465;BME280;68932;47.410;8.232;2023-07-31T07:46:37;96934.81;;;18.29;65.03
79465;BME280;68932;47.410;8.232;2023-07-31T07:49:05;96938.98;;;18.37;64.94
79465;BME280;68932;47.410;8.232;2023-07-31T07:51:33;96936.93;;;18.47;64.84
79465;BME280;68932;47.410;8.232;2023-07-31T07:54:02;96941.84;;;18.57;64.48
79465;BME280;68932;47.410;8.232;2023-07-31T07:56:30;96945.46;;;18.60;64.29
79465;BME280;68932;47.410;8.232;2023-07-31T07:58:58;96948.23;;;18.61;63.90
79465;BME280;68932;47.410;8.232;2023-07-31T08:01:27;96945.24;;;18.67;63.68
79465;BME280;68932;47.410;8.232;2023-07-31T08:03:55;96942.99;;;18.80;63.33
79465;BME280;68932;47.410;8.232;2023-07-31T08:06:23;96934.30;;;18.97;63.36
79465;BME280;68932;47.410;8.232;2023-07-31T08:08:51;96924.80;;;19.10;63.21
79465;BME280;68932;47.410;8.232;2023-07-31T08:11:19;96922.48;;;19.14;62.43
79465;BME280;68932;47.410;8.232;2023-07-31T08:13:48;96918.98;;;19.12;62.57
79465;BME280;68932;47.410;8.232;2023-07-31T08:16:16;96906.80;;;19.12;62.68
79465;BME280;68932;47.410;8.232;2023-07-31T08:18:44;96902.16;;;19.25;63.60
79465;BME280;68932;47.410;8.232;2023-07-31T08:21:12;96902.48;;;19.43;63.92
79465;BME280;68932;47.410;8.232;2023-07-31T08:23:41;96901.71;;;19.62;64.02
79465;BME280;68932;47.410;8.232;2023-07-31T08:26:09;96904.09;;;19.78;62.56
79465;BME280;68932;47.410;8.232;2023-07-31T08:28:42;96893.55;;;19.90;61.54
79465;BME280;68932;47.410;8.232;2023-07-31T08:31:10;96889.56;;;20.04;61.82
79465;BME280;68932;47.410;8.232;2023-07-31T08:33:38;96888.80;;;20.16;60.79
79465;BME280;68932;47.410;8.232;2023-07-31T08:36:07;96880.44;;;20.21;59.97
79465;BME280;68932;47.410;8.232;2023-07-31T08:38:35;96886.48;;;20.25;59.35
79465;BME280;68932;47.410;8.232;2023-07-31T08:41:05;96887.09;;;20.26;59.02
79465;BME280;68932;47.410;8.232;2023-07-31T08:43:34;96889.06;;;20.29;58.81
79465;BME280;68932;47.410;8.232;2023-07-31T08:46:03;96881.69;;;20.31;58.49
79465;BME280;68932;47.410;8.232;2023-07-31T08:48:32;96876.89;;;20.33;58.19
79465;BME280;68932;47.410;8.232;2023-07-31T08:51:02;96874.02;;;20.43;58.64
79465;BME280;68932;47.410;8.232;2023-07-31T08:53:30;96873.89;;;20.54;58.19
79465;BME280;68932;47.410;8.232;2023-07-31T08:55:59;96871.86;;;20.60;58.24
79465;BME280;68932;47.410;8.232;2023-07-31T08:58:29;96874.06;;;20.66;57.05
79465;BME280;68932;47.410;8.232;2023-07-31T09:01:00;96867.96;;;20.73;57.23
79465;BME280;68932;47.410;8.232;2023-07-31T09:03:29;96873.80;;;20.83;55.96
79465;BME280;68932;47.410;8.232;2023-07-31T09:06:01;96869.98;;;20.89;54.51
79465;BME280;68932;47.410;8.232;2023-07-31T09:08:31;96870.34;;;20.92;53.59
79465;BME280;68932;47.410;8.232;2023-07-31T09:11:02;96868.35;;;20.94;53.60
79465;BME280;68932;47.410;8.232;2023-07-31T09:13:31;96869.88;;;20.98;53.50
79465;BME280;68932;47.410;8.232;2023-07-31T09:15:59;96861.65;;;21.06;53.09
79465;BME280;68932;47.410;8.232;2023-07-31T09:18:28;96871.89;;;21.19;53.26
79465;BME280;68932;47.410;8.232;2023-07-31T09:21:06;96870.40;;;21.27;52.67
79465;BME280;68932;47.410;8.232;2023-07-31T09:23:45;96870.58;;;21.35;53.08
79465;BME280;68932;47.410;8.232;2023-07-31T09:26:30;96869.27;;;21.47;52.07
79465;BME280;68932;47.410;8.232;2023-07-31T09:28:59;96863.80;;;21.51;52.67
79465;BME280;68932;47.410;8.232;2023-07-31T09:31:50;96865.06;;;21.54;52.88
79465;BME280;68932;47.410;8.232;2023-07-31T09:34:18;96874.73;;;21.56;51.89
79465;BME280;68932;47.410;8.232;2023-07-31T09:36:49;96865.44;;;21.56;51.77
79465;BME280;68932;47.410;8.232;2023-07-31T09:39:18;96858.80;;;21.56;51.42
79465;BME280;68932;47.410;8.232;2023-07-31T09:41:53;96851.70;;;21.51;51.40
79465;BME280;68932;47.410;8.232;2023-07-31T09:44:22;96857.14;;;21.45;50.87
79465;BME280;68932;47.410;8.232;2023-07-31T09:47:05;96849.91;;;21.46;51.39
79465;BME280;68932;47.410;8.232;2023-07-31T09:49:34;96845.46;;;21.56;51.31
79465;BME280;68932;47.410;8.232;2023-07-31T09:52:02;96845.95;;;21.66;51.17
79465;BME280;68932;47.410;8.232;2023-07-31T09:54:39;96841.74;;;21.73;51.13
79465;BME280;68932;47.410;8.232;2023-07-31T09:57:10;96835.98;;;21.83;50.99
79465;BME280;68932;47.410;8.232;2023-07-31T09:59:39;96832.88;;;21.87;50.44
79465;BME280;68932;47.410;8.232;2023-07-31T10:02:10;96829.58;;;21.83;49.12
79465;BME280;68932;47.410;8.232;2023-07-31T10:04:44;96830.21;;;21.77;49.78
79465;BME280;68932;47.410;8.232;2023-07-31T10:07:13;96834.17;;;21.77;50.30
79465;BME280;68932;47.410;8.232;2023-07-31T10:09:42;96830.61;;;21.81;49.58
79465;BME280;68932;47.410;8.232;2023-07-31T10:12:12;96823.36;;;21.84;50.12
79465;BME280;68932;47.410;8.232;2023-07-31T10:14:43;96811.64;;;21.85;50.66
79465;BME280;68932;47.410;8.232;2023-07-31T10:17:12;96804.60;;;21.89;51.10
79465;BME280;68932;47.410;8.232;2023-07-31T10:19:41;96805.88;;;22.00;51.41
79465;BME280;68932;47.410;8.232;2023-07-31T10:22:10;96803.59;;;22.06;50.41
79465;BME280;68932;47.410;8.232;2023-07-31T10:24:39;96802.11;;;22.08;50.33
79465;BME280;68932;47.410;8.232;2023-07-31T10:27:08;96797.37;;;22.10;50.02
79465;BME280;68932;47.410;8.232;2023-07-31T10:29:38;96789.36;;;22.11;49.86
79465;BME280;68932;47.410;8.232;2023-07-31T10:32:09;96792.72;;;22.19;49.69
79465;BME280;68932;47.410;8.232;2023-07-31T10:34:40;96781.30;;;22.25;49.70
79465;BME280;68932;47.410;8.232;2023-07-31T10:37:22;96775.98;;;22.28;49.44
79465;BME280;68932;47.410;8.232;2023-07-31T10:39:59;96774.73;;;22.33;50.19
79465;BME280;68932;47.410;8.232;2023-07-31T10:42:35;96773.19;;;22.39;50.00
79465;BME280;68932;47.410;8.232;2023-07-31T10:45:05;96772.23;;;22.41;50.50
79465;BME280;68932;47.410;8.232;2023-07-31T10:47:38;96768.21;;;22.45;50.51
79465;BME280;68932;47.410;8.232;2023-07-31T10:50:18;96767.20;;;22.48;50.00
79465;BME280;68932;47.410;8.232;2023-07-31T10:52:48;96761.08;;;22.47;49.70
79465;BME280;68932;47.410;8.232;2023-07-31T10:55:25;96753.45;;;22.51;49.91
79465;BME280;68932;47.410;8.232;2023-07-31T10:57:54;96749.54;;;22.57;48.70
79465;BME280;68932;47.410;8.232;2023-07-31T11:00:27;96749.09;;;22.60;48.99
79465;BME280;68932;47.410;8.232;2023-07-31T11:03:00;96746.02;;;22.60;48.72
79465;BME280;68932;47.410;8.232;2023-07-31T11:05:47;96738.11;;;22.62;49.03
79465;BME280;68932;47.410;8.232;2023-07-31T11:08:17;96732.45;;;22.66;48.30
79465;BME280;68932;47.410;8.232;2023-07-31T11:10:47;96724.55;;;22.65;48.64
79465;BME280;68932;47.410;8.232;2023-07-31T11:13:16;96724.41;;;22.69;48.54
79465;BME280;68932;47.410;8.232;2023-07-31T11:15:44;96724.63;;;22.73;48.77
79465;BME280;68932;47.410;8.232;2023-07-31T11:18:13;96721.31;;;22.75;47.21
79465;BME280;68932;47.410;8.232;2023-07-31T11:20:41;96722.15;;;22.72;47.25
79465;BME280;68932;47.410;8.232;2023-07-31T11:23:10;96714.00;;;22.77;48.19
79465;BME280;68932;47.410;8.232;2023-07-31T11:25:39;96712.38;;;22.84;48.16
79465;BME280;68932;47.410;8.232;2023-07-31T11:28:09;96708.70;;;22.90;47.68
79465;BME280;68932;47.410;8.232;2023-07-31T11:30:37;96707.79;;;22.94;48.02
79465;BME280;68932;47.410;8.232;2023-07-31T11:33:07;96703.86;;;23.00;47.36
79465;BME280;68932;47.410;8.232;2023-07-31T11:35:45;96702.98;;;23.04;46.90
79465;BME280;68932;47.410;8.232;2023-07-31T11:38:22;96701.36;;;23.12;46.61
79465;BME280;68932;47.410;8.232;2023-07-31T11:40:51;96696.94;;;23.18;46.53
79465;BME280;68932;47.410;8.232;2023-07-31T11:43:21;96694.30;;;23.26;47.53
79465;BME280;68932;47.410;8.232;2023-07-31T11:45:51;96696.75;;;23.34;46.39
79465;BME280;68932;47.410;8.232;2023-07-31T11:48:24;96697.79;;;23.40;46.24
79465;BME280;68932;47.410;8.232;2023-07-31T11:50:54;96692.23;;;23.46;46.41
79465;BME280;68932;47.410;8.232;2023-07-31T11:53:26;96687.65;;;23.52;46.61
79465;BME280;68932;47.410;8.232;2023-07-31T11:55:59;96686.56;;;23.60;46.23
79465;BME280;68932;47.410;8.232;2023-07-31T11:58:28;96679.77;;;23.66;45.84
79465;BME280;68932;47.410;8.232;2023-07-31T12:00:58;96682.89;;;23.74;45.90
79465;BME280;68932;47.410;8.232;2023-07-31T12:03:26;96675.66;;;23.82;46.03
79465;BME280;68932;47.410;8.232;2023-07-31T12:05:55;96668.66;;;23.92;46.09
79465;BME280;68932;47.410;8.232;2023-07-31T12:08:25;96660.80;;;23.96;45.77
79465;BME280;68932;47.410;8.232;2023-07-31T12:10:54;96660.11;;;24.02;46.62
79465;BME280;68932;47.410;8.232;2023-07-31T12:13:24;96660.60;;;24.11;46.09
79465;BME280;68932;47.410;8.232;2023-07-31T12:15:55;96658.73;;;24.17;45.30
79465;BME280;68932;47.410;8.232;2023-07-31T12:18:24;96662.55;;;24.23;45.88
79465;BME280;68932;47.410;8.232;2023-07-31T12:20:57;96659.43;;;24.32;45.71
79465;BME280;68932;47.410;8.232;2023-07-31T12:23:27;96654.61;;;24.40;45.37
79465;BME280;68932;47.410;8.232;2023-07-31T12:26:03;96647.17;;;24.49;45.73
79465;BME280;68932;47.410;8.232;2023-07-31T12:28:36;96636.98;;;24.57;44.05
79465;BME280;68932;47.410;8.232;2023-07-31T12:31:05;96627.96;;;24.64;44.98
79465;BME280;68932;47.410;8.232;2023-07-31T12:33:35;96628.40;;;24.66;45.00
79465;BME280;68932;47.410;8.232;2023-07-31T12:36:07;96630.04;;;24.73;44.34
79465;BME280;68932;47.410;8.232;2023-07-31T12:38:36;96623.73;;;24.77;43.98
79465;BME280;68932;47.410;8.232;2023-07-31T12:41:04;96623.95;;;24.82;44.11
79465;BME280;68932;47.410;8.232;2023-07-31T12:43:32;96618.27;;;24.85;44.04
79465;BME280;68932;47.410;8.232;2023-07-31T12:46:01;96617.75;;;24.92;43.14
79465;BME280;68932;47.410;8.232;2023-07-31T12:48:29;96618.14;;;24.85;43.33
79465;BME280;68932;47.410;8.232;2023-07-31T12:50:58;96616.36;;;24.78;44.23
79465;BME280;68932;47.410;8.232;2023-07-31T12:53:26;96608.50;;;24.86;45.27
79465;BME280;68932;47.410;8.232;2023-07-31T12:55:54;96604.38;;;25.01;44.64
79465;BME280;68932;47.410;8.232;2023-07-31T12:58:22;96597.09;;;25.17;44.43
79465;BME280;68932;47.410;8.232;2023-07-31T13:00:51;96592.71;;;25.22;43.14
79465;BME280;68932;47.410;8.232;2023-07-31T13:03:19;96585.08;;;25.20;43.86
79465;BME280;68932;47.410;8.232;2023-07-31T13:05:47;96579.04;;;25.26;44.45
79465;BME280;68932;47.410;8.232;2023-07-31T13:08:16;96577.67;;;25.30;44.19
79465;BME280;68932;47.410;8.232;2023-07-31T13:10:44;96579.09;;;25.28;44.55
79465;BME280;68932;47.410;8.232;2023-07-31T13:13:12;96572.38;;;25.26;44.55